createdAt,value
2023-01-02T00:02:02.302Z,3.90
2023-01-02T00:04:33.981Z,4.60
2023-01-02T00:07:01.273Z,4.80
2023-01-02T00:09:28.085Z,5.00
2023-01-02T00:12:01.000Z,6.20
2023-01-02T00:14:27.784Z,7.10
2023-01-02T00:16:54.673Z,4.90
2023-01-02T00:19:21.432Z,4.20
2023-01-02T00:21:48.247Z,6.60
2023-01-02T00:24:15.130Z,4.40
2023-01-02T00:26:41.916Z,3.30
2023-01-02T00:29:08.826Z,4.50
2023-01-02T00:31:36.226Z,4.60
2023-01-02T00:34:03.168Z,5.20
2023-01-02T00:36:30.260Z,5.00
2023-01-02T00:38:57.305Z,4.80
2023-01-02T00:41:24.163Z,5.70
2023-01-02T00:43:51.027Z,3.80
2023-01-02T00:46:18.830Z,3.90
2023-01-02T00:48:45.799Z,4.20
2023-01-02T00:51:15.590Z,4.30
2023-01-02T00:53:42.336Z,5.20
2023-01-02T00:56:09.116Z,4.70
2023-01-02T00:58:36.044Z,4.90
2023-01-02T01:01:04.317Z,4.80
2023-01-02T01:03:31.327Z,4.40
2023-01-02T01:05:58.203Z,4.40
2023-01-02T01:08:25.267Z,4.90
2023-01-02T01:10:52.184Z,6.40
2023-01-02T01:13:19.347Z,4.50
2023-01-02T01:15:46.215Z,6.10
2023-01-02T01:18:13.667Z,4.40
2023-01-02T01:20:40.751Z,6.00
2023-01-02T01:24:43.577Z,5.30
2023-01-02T01:27:10.827Z,6.00
2023-01-02T01:29:37.760Z,4.30
2023-01-02T01:32:06.444Z,4.60
2023-01-02T01:34:33.765Z,4.50
2023-01-02T01:37:00.836Z,4.20
2023-01-02T01:39:27.740Z,3.90
2023-01-02T01:41:54.735Z,5.10
2023-01-02T01:44:45.308Z,5.10
2023-01-02T01:47:50.125Z,5.40
2023-01-02T01:50:24.280Z,3.70
2023-01-02T01:52:54.046Z,6.40
2023-01-02T01:55:32.378Z,5.50
2023-01-02T01:58:00.978Z,5.50
2023-01-02T02:00:27.846Z,3.80
2023-01-02T02:02:58.488Z,4.00
2023-01-02T02:05:26.888Z,4.60
2023-01-02T02:08:08.512Z,4.80
2023-01-02T02:10:37.062Z,5.90
2023-01-02T02:13:04.317Z,5.40
2023-01-02T02:15:56.302Z,5.70
2023-01-02T02:19:00.235Z,4.20
2023-01-02T02:21:54.866Z,3.80
2023-01-02T02:24:24.656Z,4.80
2023-01-02T02:26:54.562Z,4.80
2023-01-02T02:29:46.465Z,5.90
2023-01-02T02:32:30.220Z,4.90
2023-01-02T02:35:15.142Z,4.70
2023-01-02T02:37:48.383Z,6.10
2023-01-02T02:40:33.595Z,6.80
2023-01-02T02:43:17.058Z,4.80
2023-01-02T02:45:56.025Z,3.80
2023-01-02T02:48:29.790Z,4.00
2023-01-02T02:51:03.021Z,4.30
2023-01-02T02:53:37.551Z,5.80
2023-01-02T02:56:05.619Z,6.20
2023-01-02T02:58:32.707Z,5.90
2023-01-02T03:01:07.562Z,5.00
2023-01-02T03:03:34.679Z,7.10
2023-01-02T03:06:22.515Z,5.80
2023-01-02T03:09:13.654Z,5.50
2023-01-02T03:12:04.980Z,5.00
2023-01-02T03:14:38.067Z,5.90
2023-01-02T03:17:08.154Z,5.10
2023-01-02T03:19:40.296Z,4.50
2023-01-02T03:22:19.711Z,4.30
2023-01-02T03:24:47.315Z,6.70
2023-01-02T03:27:16.005Z,4.90
2023-01-02T03:29:50.120Z,4.80
2023-01-02T03:32:22.961Z,6.00
2023-01-02T03:34:49.670Z,7.00
2023-01-02T03:37:19.556Z,5.70
2023-01-02T03:39:49.301Z,5.20
2023-01-02T03:44:47.063Z,4.60
2023-01-02T03:47:35.600Z,6.20
2023-01-02T03:50:06.961Z,5.20
2023-01-02T03:52:33.765Z,5.60
2023-01-02T03:55:00.687Z,6.20
2023-01-02T03:57:39.671Z,5.90
2023-01-02T04:00:06.795Z,5.00
2023-01-02T04:02:47.307Z,5.40
2023-01-02T04:05:21.114Z,3.90
2023-01-02T04:07:58.570Z,4.20
2023-01-02T04:10:25.991Z,5.50
2023-01-02T04:12:55.611Z,5.00
2023-01-02T04:15:23.990Z,5.70
2023-01-02T04:17:56.841Z,5.50
2023-01-02T04:20:25.181Z,5.00
2023-01-02T04:22:57.721Z,8.70
2023-01-02T04:25:26.406Z,7.40
2023-01-02T04:28:29.735Z,5.90
2023-01-02T04:31:15.516Z,5.10
2023-01-02T04:33:53.742Z,6.30
2023-01-02T04:36:20.561Z,7.30
2023-01-02T04:38:47.736Z,7.20
2023-01-02T04:41:27.125Z,3.60
2023-01-02T04:43:55.261Z,6.70
2023-01-02T04:46:23.306Z,6.40
2023-01-02T04:48:50.266Z,5.20
2023-01-02T04:51:17.132Z,4.80
2023-01-02T04:53:43.934Z,4.80
2023-01-02T04:56:10.878Z,6.80
2023-01-02T04:58:37.715Z,5.60
2023-01-02T05:01:11.694Z,5.80
2023-01-02T05:03:40.335Z,6.20
2023-01-02T05:06:07.886Z,7.10
2023-01-02T05:08:35.472Z,6.60
2023-01-02T05:11:09.693Z,7.00
2023-01-02T05:13:36.668Z,7.50
2023-01-02T05:16:04.735Z,7.70
2023-01-02T05:18:31.907Z,5.80
2023-01-02T05:21:31.730Z,3.70
2023-01-02T05:24:00.702Z,4.20
2023-01-02T05:26:27.587Z,6.40
2023-01-02T05:28:54.744Z,4.90
2023-01-02T05:31:22.200Z,4.60
2023-01-02T05:33:56.234Z,5.40
2023-01-02T05:36:23.921Z,5.40
2023-01-02T05:38:51.083Z,5.70
2023-01-02T05:41:18.070Z,6.60
2023-01-02T05:43:45.096Z,6.50
2023-01-02T05:46:12.713Z,5.30
2023-01-02T05:48:40.075Z,8.20
2023-01-02T05:51:07.639Z,6.30
2023-01-02T05:53:34.659Z,6.50
2023-01-02T05:56:05.556Z,5.90
2023-01-02T05:58:35.715Z,6.20
2023-01-02T06:01:13.965Z,5.90
2023-01-02T06:03:44.664Z,7.30
2023-01-02T06:06:11.502Z,6.20
2023-01-02T06:08:39.073Z,3.50
2023-01-02T06:11:06.136Z,5.10
2023-01-02T06:13:35.878Z,5.40
2023-01-02T06:16:03.730Z,5.60
2023-01-02T06:18:31.899Z,7.80
2023-01-02T06:20:59.801Z,6.50
2023-01-02T06:23:26.746Z,6.90
2023-01-02T06:25:55.696Z,7.70
2023-01-02T06:28:23.115Z,6.30
2023-01-02T06:30:49.819Z,6.70
2023-01-02T06:33:17.351Z,8.60
2023-01-02T06:35:44.702Z,6.20
2023-01-02T06:38:11.805Z,7.70
2023-01-02T06:40:38.932Z,7.70
2023-01-02T06:43:05.923Z,5.10
2023-01-02T06:45:32.875Z,3.90
2023-01-02T06:48:00.832Z,4.80
2023-01-02T06:50:34.689Z,4.40
2023-01-02T06:53:02.428Z,5.80
2023-01-02T06:55:29.314Z,5.80
2023-01-02T06:57:56.081Z,5.10
2023-01-02T07:00:22.968Z,5.20
2023-01-02T07:02:49.909Z,6.20
2023-01-02T07:05:22.704Z,5.20
2023-01-02T07:07:51.395Z,5.60
2023-01-02T07:10:19.208Z,8.00
2023-01-02T07:12:46.033Z,5.70
2023-01-02T07:15:12.969Z,4.20
2023-01-02T07:17:40.065Z,5.00
2023-01-02T07:20:07.566Z,5.50
2023-01-02T07:22:34.632Z,7.20
2023-01-02T07:25:03.200Z,5.70
2023-01-02T07:27:31.307Z,5.60
2023-01-02T07:29:58.264Z,6.60
2023-01-02T07:32:27.548Z,7.80
2023-01-02T07:34:54.796Z,10.00
2023-01-02T07:37:21.770Z,6.20
2023-01-02T07:39:50.750Z,7.10
2023-01-02T07:42:17.524Z,6.30
2023-01-02T07:44:44.675Z,6.00
2023-01-02T07:47:13.351Z,7.60
2023-01-02T07:49:40.409Z,8.20
2023-01-02T07:52:11.335Z,7.20
2023-01-02T07:54:38.073Z,6.20
2023-01-02T07:57:04.918Z,6.80
2023-01-02T07:59:32.174Z,7.20
2023-01-02T08:01:58.989Z,8.70
2023-01-02T08:04:26.213Z,10.30
2023-01-02T08:06:53.140Z,7.20
2023-01-02T08:09:19.928Z,11.60
2023-01-02T08:11:46.925Z,4.50
2023-01-02T08:14:18.335Z,6.40
2023-01-02T08:16:49.015Z,6.50
2023-01-02T08:19:16.184Z,7.90
2023-01-02T08:21:42.919Z,6.50
2023-01-02T08:24:09.738Z,8.40
2023-01-02T08:26:36.884Z,8.20
2023-01-02T08:29:04.224Z,7.20
2023-01-02T08:31:30.992Z,6.20
2023-01-02T08:33:57.947Z,8.10
2023-01-02T08:36:25.296Z,7.70
2023-01-02T08:38:52.120Z,7.60
2023-01-02T08:41:36.295Z,7.80
2023-01-02T08:44:03.425Z,6.40
2023-01-02T08:46:38.545Z,6.50
2023-01-02T08:49:09.513Z,6.60
2023-01-02T08:51:36.489Z,6.30
2023-01-02T08:54:03.417Z,7.20
2023-01-02T08:56:31.753Z,6.00
2023-01-02T08:59:01.010Z,8.50
2023-01-02T09:01:28.545Z,9.40
2023-01-02T09:03:55.568Z,7.30
2023-01-02T09:06:23.751Z,7.80
2023-01-02T09:08:52.820Z,7.70
2023-01-02T09:11:22.684Z,7.70
2023-01-02T09:13:51.541Z,8.60
2023-01-02T09:16:18.849Z,7.30
2023-01-02T09:18:45.718Z,7.70
2023-01-02T09:21:12.710Z,7.20
2023-01-02T09:23:39.467Z,8.60
2023-01-02T09:26:07.005Z,7.30
2023-01-02T09:28:35.781Z,10.00
2023-01-02T09:31:13.303Z,7.10
2023-01-02T09:33:45.242Z,8.40
2023-01-02T09:36:13.103Z,8.20
2023-01-02T09:38:40.240Z,7.70
2023-01-02T09:41:19.252Z,7.80
2023-01-02T09:43:48.445Z,7.80
2023-01-02T09:46:28.647Z,6.40
2023-01-02T09:48:55.593Z,6.80
2023-01-02T09:51:22.439Z,8.90
2023-01-02T09:53:49.264Z,6.90
2023-01-02T09:56:34.108Z,11.80
2023-01-02T09:59:07.500Z,7.60
2023-01-02T10:01:36.456Z,7.10
2023-01-02T10:04:38.598Z,8.30
2023-01-02T10:07:08.434Z,6.70
2023-01-02T10:09:45.039Z,8.90
2023-01-02T10:12:21.068Z,8.50
2023-01-02T10:14:55.324Z,7.80
2023-01-02T10:17:22.524Z,8.00
2023-01-02T10:19:58.205Z,7.70
2023-01-02T10:22:39.662Z,9.20
2023-01-02T10:25:18.781Z,6.80
2023-01-02T10:27:57.811Z,7.40
2023-01-02T10:30:26.551Z,7.70
2023-01-02T10:33:00.413Z,7.70
2023-01-02T10:35:50.899Z,10.20
2023-01-02T10:38:18.645Z,9.50
2023-01-02T10:40:47.032Z,10.70
2023-01-02T10:43:14.586Z,8.80
2023-01-02T10:45:42.568Z,8.30
2023-01-02T10:48:12.771Z,8.40
2023-01-02T10:50:46.679Z,7.60
2023-01-02T10:53:33.919Z,9.10
2023-01-02T10:56:03.079Z,8.50
2023-01-02T10:58:30.298Z,9.50
2023-01-02T11:01:08.271Z,10.00
2023-01-02T11:03:36.708Z,7.00
2023-01-02T11:06:25.664Z,9.30
2023-01-02T11:09:05.088Z,7.30
2023-01-02T11:11:32.214Z,8.90
2023-01-02T11:14:07.401Z,9.30
2023-01-02T11:16:38.903Z,8.40
2023-01-02T11:19:07.603Z,7.00
2023-01-02T11:21:36.414Z,9.20
2023-01-02T11:24:19.812Z,7.80
2023-01-02T11:26:48.281Z,7.80
2023-01-02T11:29:29.787Z,8.70
2023-01-02T11:32:00.206Z,9.10
2023-01-02T11:34:36.260Z,9.30
2023-01-02T11:37:05.842Z,7.20
2023-01-02T11:39:34.039Z,8.90
2023-01-02T11:42:42.851Z,9.90
2023-01-02T11:45:17.090Z,11.50
2023-01-02T11:48:04.776Z,10.10
2023-01-02T11:50:34.564Z,8.40
2023-01-02T11:53:22.448Z,9.50
2023-01-02T11:55:59.644Z,11.70
2023-01-02T11:58:31.274Z,8.60
2023-01-02T12:01:19.685Z,9.00
2023-01-02T12:03:46.648Z,10.20
2023-01-02T12:06:24.674Z,8.90
2023-01-02T12:09:13.737Z,8.00
2023-01-02T12:12:08.772Z,9.10
2023-01-02T12:15:00.133Z,7.70
2023-01-02T12:17:41.746Z,8.90
2023-01-02T12:20:27.075Z,8.30
2023-01-02T12:23:12.669Z,9.00
2023-01-02T12:25:42.278Z,10.50
2023-01-02T12:28:24.364Z,9.50
2023-01-02T12:31:26.779Z,7.60
2023-01-02T12:34:20.177Z,8.80
2023-01-02T12:36:49.127Z,8.50
2023-01-02T12:39:25.287Z,9.10
2023-01-02T12:42:22.942Z,7.40
2023-01-02T12:44:58.851Z,8.70
2023-01-02T12:48:08.180Z,10.40
2023-01-02T12:50:49.169Z,9.20
2023-01-02T12:53:36.854Z,7.90
2023-01-02T12:56:42.475Z,10.50
2023-01-02T12:59:28.177Z,6.70
2023-01-02T13:02:32.276Z,8.70
2023-01-02T13:05:02.815Z,9.90
2023-01-02T13:07:37.584Z,7.60
2023-01-02T13:10:04.951Z,16.90
2023-01-02T13:12:33.015Z,25.90
2023-01-02T13:15:28.142Z,19.70
2023-01-02T13:18:31.181Z,16.30
2023-01-02T13:21:06.694Z,15.30
2023-01-02T13:23:37.168Z,11.90
2023-01-02T13:26:09.943Z,13.30
2023-01-02T13:28:53.141Z,20.60
2023-01-02T13:31:45.900Z,55.30
2023-01-02T13:34:09.287Z,52.70
2023-01-02T13:36:42.606Z,21.70
2023-01-02T13:39:42.056Z,38.00
2023-01-02T13:42:38.729Z,19.80
2023-01-02T13:45:37.529Z,23.40
2023-01-02T13:48:18.072Z,32.90
2023-01-02T13:50:44.831Z,22.70
2023-01-02T13:53:11.823Z,19.60
2023-01-02T13:55:41.877Z,23.60
2023-01-02T13:58:18.252Z,16.10
2023-01-02T14:00:54.337Z,17.10
2023-01-02T14:03:22.864Z,20.90
2023-01-02T14:06:00.390Z,16.20
2023-01-02T14:08:27.320Z,13.40
2023-01-02T14:10:59.401Z,15.20
2023-01-02T14:13:49.877Z,13.50
2023-01-02T14:16:22.738Z,15.10
2023-01-02T14:19:14.778Z,18.30
2023-01-02T14:21:46.903Z,15.80
2023-01-02T14:24:29.819Z,22.80
2023-01-02T14:27:00.025Z,30.40
2023-01-02T14:29:27.128Z,40.30
2023-01-02T14:32:05.655Z,37.70
2023-01-02T14:34:32.929Z,23.20
2023-01-02T14:36:59.777Z,20.40
2023-01-02T14:39:31.038Z,29.80
2023-01-02T14:42:24.757Z,42.00
2023-01-02T14:44:57.667Z,22.40
2023-01-02T14:47:37.386Z,24.40
2023-01-02T14:50:05.750Z,29.20
2023-01-02T14:52:35.310Z,21.10
2023-01-02T14:55:20.479Z,23.30
2023-01-02T14:57:48.993Z,25.10
2023-01-02T15:00:22.942Z,28.90
2023-01-02T15:02:54.014Z,30.20
2023-01-02T15:05:28.062Z,33.80
2023-01-02T15:07:55.375Z,40.10
2023-01-02T15:10:23.156Z,36.20
2023-01-02T15:13:05.173Z,41.20
2023-01-02T15:15:45.868Z,28.60
2023-01-02T15:18:32.327Z,33.20
2023-01-02T15:21:10.247Z,23.60
2023-01-02T15:23:37.842Z,39.90
2023-01-02T15:26:31.760Z,34.80
2023-01-02T15:28:59.958Z,51.40
2023-01-02T15:33:58.379Z,64.80
2023-01-02T15:36:32.998Z,40.20
2023-01-02T15:39:05.339Z,135.90
2023-01-02T15:41:32.262Z,85.60
2023-01-02T15:44:18.285Z,65.10
2023-01-02T15:46:45.250Z,51.30
2023-01-02T15:49:13.292Z,57.90
2023-01-02T15:51:41.964Z,39.00
2023-01-02T15:54:12.950Z,26.80
2023-01-02T15:56:40.229Z,36.00
2023-01-02T15:59:30.247Z,24.10
2023-01-02T16:01:57.313Z,19.00
2023-01-02T16:04:32.177Z,24.30
2023-01-02T16:07:01.390Z,18.30
2023-01-02T16:09:29.437Z,15.80
2023-01-02T16:11:57.984Z,17.30
2023-01-02T16:14:43.061Z,17.30
2023-01-02T16:17:29.344Z,18.80
2023-01-02T16:19:59.810Z,18.00
2023-01-02T16:22:36.074Z,21.10
2023-01-02T16:25:07.120Z,15.60
2023-01-02T16:27:41.044Z,10.20
2023-01-02T16:30:39.169Z,13.00
2023-01-02T16:33:27.165Z,12.40
2023-01-02T16:36:00.643Z,11.80
2023-01-02T16:38:30.301Z,12.50
2023-01-02T16:41:03.413Z,15.00
2023-01-02T16:43:33.447Z,11.00
2023-01-02T16:46:03.641Z,10.20
2023-01-02T16:48:30.698Z,20.40
2023-01-02T16:50:58.128Z,19.10
2023-01-02T16:53:29.945Z,16.30
2023-01-02T16:55:56.826Z,17.40
2023-01-02T16:58:25.449Z,14.30
2023-01-02T17:00:54.511Z,10.00
2023-01-02T17:03:23.775Z,9.90
2023-01-02T17:06:04.497Z,11.00
2023-01-02T17:08:34.689Z,8.80
2023-01-02T17:11:18.309Z,10.60
2023-01-02T17:13:45.747Z,9.80
2023-01-02T17:16:12.831Z,11.30
2023-01-02T17:18:40.694Z,12.10
2023-01-02T17:21:07.659Z,11.80
2023-01-02T17:23:34.389Z,10.30
2023-01-02T17:26:02.114Z,9.60
2023-01-02T17:28:30.431Z,13.20
2023-01-02T17:30:57.304Z,11.90
2023-01-02T17:33:24.719Z,7.80
2023-01-02T17:35:51.782Z,7.50
2023-01-02T17:38:18.636Z,9.90
2023-01-02T17:40:45.517Z,10.50
2023-01-02T17:43:12.234Z,11.90
2023-01-02T17:45:44.348Z,16.30
2023-01-02T17:48:15.177Z,16.20
2023-01-02T17:50:47.629Z,23.80
2023-01-02T17:53:14.443Z,28.80
2023-01-02T17:55:48.119Z,47.60
2023-01-02T17:58:15.012Z,46.00
2023-01-02T18:00:43.737Z,46.30
2023-01-02T18:05:37.946Z,27.90
2023-01-02T18:08:05.183Z,17.40
2023-01-02T18:10:36.050Z,24.50
2023-01-02T18:13:03.565Z,23.70
2023-01-02T18:15:31.702Z,21.20
2023-01-02T18:18:01.715Z,18.20
2023-01-02T18:20:29.030Z,15.50
2023-01-02T18:22:58.232Z,17.20
2023-01-02T18:25:27.399Z,17.00
2023-01-02T18:28:03.053Z,14.90
2023-01-02T18:30:30.378Z,12.50
2023-01-02T18:33:11.225Z,14.10
2023-01-02T18:35:56.922Z,15.20
2023-01-02T18:38:38.068Z,9.90
2023-01-02T18:41:18.767Z,9.40
2023-01-02T18:43:54.251Z,11.80
2023-01-02T18:46:23.440Z,14.70
2023-01-02T18:51:19.991Z,13.20
2023-01-02T18:53:52.178Z,15.10
2023-01-02T18:56:31.084Z,13.10
2023-01-02T18:59:23.316Z,14.30
2023-01-02T19:01:51.685Z,15.90
2023-01-02T19:04:28.307Z,15.60
2023-01-02T19:06:57.497Z,18.40
2023-01-02T19:09:30.693Z,14.30
2023-01-02T19:12:41.902Z,8.60
2023-01-02T19:15:46.311Z,12.50
2023-01-02T19:18:13.332Z,16.40
2023-01-02T19:20:43.639Z,13.30
2023-01-02T19:23:25.440Z,13.80
2023-01-02T19:25:54.866Z,13.50
2023-01-02T19:28:24.484Z,16.60
2023-01-02T19:30:56.648Z,19.30
2023-01-02T19:33:32.682Z,14.40
2023-01-02T19:36:01.606Z,15.60
2023-01-02T19:38:29.971Z,13.80
2023-01-02T19:40:58.851Z,14.20
2023-01-02T19:43:26.123Z,16.20
2023-01-02T19:45:55.353Z,14.40
2023-01-02T19:48:22.155Z,12.50
2023-01-02T19:50:50.074Z,13.50
2023-01-02T19:53:17.099Z,13.00
2023-01-02T19:55:43.835Z,13.80
2023-01-02T19:58:11.237Z,12.30
2023-01-02T20:00:38.181Z,10.10
2023-01-02T20:03:05.122Z,14.60
2023-01-02T20:05:32.056Z,10.60
2023-01-02T20:08:00.176Z,10.80
2023-01-02T20:10:26.979Z,12.30
2023-01-02T20:12:53.919Z,10.50
2023-01-02T20:15:25.894Z,8.30
2023-01-02T20:17:53.177Z,8.80
2023-01-02T20:20:21.981Z,10.00
2023-01-02T20:22:51.575Z,14.80
2023-01-02T20:25:21.117Z,15.40
2023-01-02T20:27:48.364Z,12.10
2023-01-02T20:30:20.219Z,16.80
2023-01-02T20:32:50.917Z,24.70
2023-01-02T20:35:17.997Z,14.80
2023-01-02T20:37:44.703Z,23.20
2023-01-02T20:40:11.884Z,14.40
2023-01-02T20:42:40.322Z,13.90
2023-01-02T20:45:07.810Z,12.90
2023-01-02T20:47:36.546Z,11.30
2023-01-02T20:50:04.265Z,8.40
2023-01-02T20:52:31.668Z,9.70
2023-01-02T20:54:58.948Z,9.70
2023-01-02T20:57:27.079Z,8.60
2023-01-02T20:59:53.994Z,8.60
2023-01-02T21:02:21.347Z,8.90
2023-01-02T21:04:48.613Z,10.80
2023-01-02T21:07:15.509Z,10.10
2023-01-02T21:09:42.879Z,9.70
2023-01-02T21:12:29.873Z,9.70
2023-01-02T21:14:58.292Z,9.30
2023-01-02T21:17:25.291Z,12.10
2023-01-02T21:19:52.068Z,9.60
2023-01-02T21:22:19.344Z,7.20
2023-01-02T21:24:46.119Z,10.20
2023-01-02T21:27:13.527Z,9.10
2023-01-02T21:29:40.762Z,8.40
2023-01-02T21:32:08.077Z,11.10
2023-01-02T21:34:34.944Z,10.30
2023-01-02T21:37:02.138Z,9.20
2023-01-02T21:39:29.311Z,11.00
2023-01-02T21:42:14.402Z,10.60
2023-01-02T21:44:41.200Z,14.10
2023-01-02T21:47:08.089Z,16.10
2023-01-02T21:49:34.983Z,12.70
2023-01-02T21:52:02.093Z,12.20
2023-01-02T21:54:29.310Z,11.40
2023-01-02T21:56:56.149Z,10.20
2023-01-02T21:59:25.426Z,8.50
2023-01-02T22:01:53.032Z,10.30
2023-01-02T22:04:20.170Z,11.50
2023-01-02T22:07:21.261Z,10.90
2023-01-02T22:09:34.183Z,11.30
2023-01-02T22:12:01.388Z,9.20
2023-01-02T22:14:29.958Z,10.70
2023-01-02T22:16:57.725Z,10.70
2023-01-02T22:19:26.312Z,7.70
2023-01-02T22:21:53.125Z,11.60
2023-01-02T22:24:20.219Z,12.60
2023-01-02T22:26:47.247Z,12.00
2023-01-02T22:29:14.618Z,9.90
2023-01-02T22:31:41.835Z,7.50
2023-01-02T22:34:09.000Z,7.10
2023-01-02T22:36:36.335Z,10.50
2023-01-02T22:42:49.000Z,11.70
2023-01-02T22:45:03.758Z,8.50
2023-01-02T22:47:32.318Z,11.60
2023-01-02T22:49:59.055Z,7.90
2023-01-02T22:52:25.912Z,8.20
2023-01-02T22:54:52.654Z,9.10
2023-01-02T22:57:23.366Z,9.00
2023-01-02T22:59:50.409Z,7.70
2023-01-02T23:02:20.731Z,9.00
2023-01-02T23:04:50.928Z,9.60
2023-01-02T23:07:24.169Z,9.30
2023-01-02T23:09:51.486Z,14.60
2023-01-02T23:12:18.221Z,12.60
2023-01-02T23:14:47.603Z,11.80
2023-01-02T23:17:32.923Z,15.50
2023-01-02T23:19:59.809Z,9.80
2023-01-02T23:22:26.708Z,9.80
2023-01-02T23:24:53.914Z,13.50
2023-01-02T23:27:21.100Z,38.70
2023-01-02T23:29:48.191Z,13.20
2023-01-02T23:32:16.336Z,10.30
2023-01-02T23:34:44.100Z,7.90
2023-01-02T23:37:10.841Z,13.90
2023-01-02T23:39:37.666Z,8.00
2023-01-02T23:42:04.930Z,11.10
2023-01-02T23:44:31.691Z,8.40
2023-01-02T23:47:00.796Z,9.10
2023-01-02T23:49:29.811Z,8.20
2023-01-02T23:51:56.567Z,9.70
2023-01-02T23:54:23.449Z,9.40
2023-01-02T23:56:50.784Z,13.20
2023-01-02T23:59:20.867Z,13.80
